Time;durP1;ratioP1;P1;durP2;ratioP2;P2;SDS_P1;SDS_P2;PMS_P1;PMS_P2;Temp;Humidity;BMP_temperature;BMP_pressure;BME280_temperature;BME280_humidity;BME280_pressure;Samples;Min_cycle;Max_cycle;Signal;HPM_P1;HPM_P2
2022/03/14 06:45:23;;;;;;;;;4.00;2.00;;;;;16.27;55.56;102200.34;4985587;27;45473;-73
2022/03/14 06:47:49;;;;;;;;;2.25;2.25;;;;;16.50;55.38;102210.75;4989900;27;45861;-73
2022/03/14 06:50:14;;;;;;;;;2.75;2.75;;;;;16.74;55.54;102232.66;4995990;28;45643;-74
2022/03/14 06:52:40;;;;;;;;;1.25;1.00;;;;;17.00;55.12;102227.59;4993247;27;45525;-72
2022/03/14 06:55:05;;;;;;;;;2.00;2.00;;;;;17.28;54.77;102233.22;4993583;27;45665;-75
2022/03/14 06:57:31;;;;;;;;;4.00;2.00;;;;;17.55;54.41;102248.63;4994146;28;46232;-71
2022/03/14 06:59:57;;;;;;;;;3.75;3.00;;;;;17.78;53.95;102237.34;5011060;28;45380;-71
2022/03/14 07:02:26;;;;;;;;;2.75;2.00;;;;;18.01;53.34;102248.53;4994762;27;46968;-72
2022/03/14 07:04:51;;;;;;;;;6.50;3.50;;;;;18.24;53.04;102250.75;4997707;27;46070;-71
2022/03/14 07:07:16;;;;;;;;;4.75;3.25;;;;;18.44;52.73;102252.19;4999459;27;53039;-71
2022/03/14 07:09:42;;;;;;;;;1.75;1.75;;;;;18.61;52.37;102261.88;5003295;28;54189;-71
2022/03/14 07:12:10;;;;;;;;;5.25;3.00;;;;;18.80;52.23;102266.06;4992504;27;45430;-71
2022/03/14 07:14:36;;;;;;;;;4.25;2.75;;;;;18.94;51.71;102257.94;5000299;27;47055;-69
2022/03/14 07:17:01;;;;;;;;;4.75;4.75;;;;;19.08;51.61;102253.50;5002532;27;45508;-69
2022/03/14 07:19:26;;;;;;;;;2.00;2.00;;;;;19.21;51.29;102261.63;4997802;28;47097;-68
2022/03/14 07:21:52;;;;;;;;;5.33;4.00;;;;;19.34;50.61;102267.06;4993354;28;45491;-69
2022/03/14 07:24:17;;;;;;;;;5.25;5.00;;;;;19.46;50.38;102273.44;4997952;27;49090;-68
2022/03/14 07:26:42;;;;;;;;;4.00;2.00;;;;;19.56;50.24;102285.31;5001081;27;45845;-69
2022/03/14 07:29:08;;;;;;;;;3.00;2.75;;;;;19.66;50.16;102295.47;4990718;28;45550;-68
2022/03/14 07:31:35;;;;;;;;;2.67;2.67;;;;;19.75;49.65;102301.06;5000516;28;45387;-69
2022/03/14 07:34:01;;;;;;;;;3.00;3.00;;;;;19.84;49.94;102296.88;4988007;27;46227;-69
2022/03/14 07:36:26;;;;;;;;;1.00;1.00;;;;;19.92;49.88;102307.13;4987992;28;45637;-69
2022/03/14 07:38:52;;;;;;;;;2.00;2.00;;;;;19.99;49.59;102307.59;4997473;28;46031;-69
2022/03/14 07:41:17;;;;;;;;;5.00;4.00;;;;;20.07;49.50;102305.22;4995000;27;45859;-71
2022/03/14 07:43:42;;;;;;;;;2.67;2.67;;;;;20.14;49.31;102311.91;4991239;28;59330;-69
2022/03/14 07:46:08;;;;;;;;;2.67;2.00;;;;;20.21;48.76;102314.16;4994209;27;45513;-69
2022/03/14 07:48:34;;;;;;;;;3.00;2.33;;;;;20.30;48.51;102307.25;4993840;28;45684;-69
2022/03/14 07:51:00;;;;;;;;;3.00;2.33;;;;;20.34;48.96;102306.94;5003852;28;45599;-70
2022/03/14 07:53:25;;;;;;;;;2.33;2.33;;;;;20.40;48.53;102319.97;5002058;27;46284;-69
2022/03/14 07:55:52;;;;;;;;;2.33;2.00;;;;;20.46;48.35;102323.22;4987109;28;55909;-68
2022/03/14 07:58:18;;;;;;;;;3.00;3.00;;;;;20.52;48.23;102325.50;4973565;28;45462;-68
2022/03/14 08:00:43;;;;;;;;;3.00;3.00;;;;;20.57;48.24;102330.53;5002769;27;45440;-69
2022/03/14 08:03:09;;;;;;;;;3.33;3.33;;;;;20.61;47.68;102341.03;4977745;28;46176;-69
2022/03/14 08:05:34;;;;;;;;;5.00;3.00;;;;;20.69;47.87;102342.28;4980087;28;45964;-69
2022/03/14 08:08:00;;;;;;;;;3.00;3.00;;;;;20.74;47.31;102338.28;4981174;28;45481;-69
2022/03/14 08:10:26;;;;;;;;;2.00;2.00;;;;;20.80;47.14;102336.97;4975056;28;45460;-69
2022/03/14 08:12:53;;;;;;;;;3.67;2.00;;;;;20.84;47.62;102330.38;4976962;28;47025;-68
2022/03/14 08:15:21;;;;;;;;;6.00;3.00;;;;;20.90;47.22;102339.91;4985667;27;45596;-73
2022/03/14 08:17:47;;;;;;;;;3.33;2.00;;;;;21.02;47.29;102338.13;4982621;27;47198;-73
2022/03/14 08:20:12;;;;;;;;;2.67;1.00;;;;;21.15;47.61;102340.78;5020141;27;45462;-73
2022/03/14 08:22:38;;;;;;;;;3.33;2.00;;;;;21.29;47.28;102347.88;5007803;27;46772;-74
2022/03/14 08:25:04;;;;;;;;;1.67;1.33;;;;;21.44;47.61;102343.16;5017453;27;45469;-73
2022/03/14 08:27:29;;;;;;;;;2.67;2.67;;;;;21.59;47.67;102343.84;4983142;27;45541;-72
2022/03/14 08:29:55;;;;;;;;;3.33;2.00;;;;;21.72;47.11;102351.91;5012380;27;52484;-73
2022/03/14 08:32:21;;;;;;;;;4.00;3.67;;;;;21.84;47.74;102361.75;5011046;27;47376;-74
2022/03/14 08:34:47;;;;;;;;;3.00;3.00;;;;;21.96;47.73;102357.22;4983226;27;46231;-75
2022/03/14 08:37:12;;;;;;;;;4.67;4.67;;;;;22.09;47.03;102367.09;5002746;27;45493;-75
2022/03/14 08:39:37;;;;;;;;;3.00;3.00;;;;;22.21;47.51;102371.56;4985528;27;45429;-75
2022/03/14 08:42:04;;;;;;;;;4.67;3.33;;;;;22.31;47.18;102370.84;4983779;27;45927;-73
2022/03/14 08:44:29;;;;;;;;;3.00;3.00;;;;;22.41;47.16;102368.25;5016895;27;45444;-73
2022/03/14 08:46:55;;;;;;;;;3.00;3.00;;;;;22.51;47.27;102375.53;4983940;27;45426;-73
2022/03/14 08:49:20;;;;;;;;;4.33;4.33;;;;;22.61;47.00;102370.25;4974023;28;45966;-73
2022/03/14 08:51:45;;;;;;;;;2.67;2.67;;;;;22.71;46.91;102367.69;5013702;27;46953;-73
2022/03/14 08:54:11;;;;;;;;;5.00;3.33;;;;;22.79;47.18;102377.91;4983447;28;45529;-73
2022/03/14 08:56:37;;;;;;;;;5.33;5.00;;;;;22.87;46.94;102375.44;4987970;27;45356;-73
2022/03/14 08:59:03;;;;;;;;;5.00;5.00;;;;;22.95;46.45;102384.75;4980350;27;45516;-74
2022/03/14 09:01:28;;;;;;;;;7.00;4.67;;;;;23.03;47.13;102385.88;4981454;27;47043;-74
2022/03/14 09:03:53;;;;;;;;;4.00;4.00;;;;;23.12;46.78;102391.50;4987102;27;50085;-72
2022/03/14 09:06:19;;;;;;;;;4.00;4.00;;;;;23.20;46.42;102393.59;4981607;27;45449;-72
2022/03/14 09:08:44;;;;;;;;;4.33;4.33;;;;;23.26;46.62;102395.81;4987003;27;45436;-71
2022/03/14 09:11:09;;;;;;;;;5.00;2.00;;;;;23.32;46.07;102389.88;4981257;27;45398;-72
2022/03/14 09:13:35;;;;;;;;;5.33;4.00;;;;;23.37;45.96;102394.94;4979255;27;48723;-72
2022/03/14 09:16:00;;;;;;;;;6.00;5.67;;;;;23.44;45.82;102409.69;4980373;28;46042;-73
2022/03/14 09:18:31;;;;;;;;;8.67;6.00;;;;;23.50;45.63;102406.47;4975435;27;45799;-73
2022/03/14 09:20:57;;;;;;;;;6.67;6.00;;;;;23.55;45.45;102403.38;4975169;28;45918;-73
2022/03/14 09:23:24;;;;;;;;;10.00;5.33;;;;;23.60;45.49;102406.56;4974498;28;45678;-73
2022/03/14 09:25:50;;;;;;;;;7.33;7.33;;;;;23.66;45.18;102399.75;4976680;28;45463;-74
2022/03/14 09:28:15;;;;;;;;;7.33;5.33;;;;;23.72;45.82;102404.69;4979027;28;45518;-74
2022/03/14 09:30:43;;;;;;;;;7.67;7.67;;;;;23.78;45.23;102412.28;4985332;27;46034;-73
2022/03/14 09:33:08;;;;;;;;;10.00;7.67;;;;;23.85;45.20;102414.47;4976509;28;45807;-73
2022/03/14 09:35:36;;;;;;;;;7.00;7.00;;;;;23.90;45.43;102410.38;4981505;27;45687;-74
2022/03/14 09:38:01;;;;;;;;;11.33;8.67;;;;;23.96;45.19;102403.59;4979462;28;45595;-73
2022/03/14 09:40:30;;;;;;;;;10.00;6.67;;;;;24.03;45.33;102406.63;4978171;28;45590;-73
2022/03/14 09:42:56;;;;;;;;;13.00;9.33;;;;;24.09;45.38;102403.41;4981720;28;45381;-73
2022/03/14 09:45:22;;;;;;;;;10.33;9.00;;;;;24.14;45.28;102409.31;4975462;28;45388;-73
2022/03/14 09:47:50;;;;;;;;;10.67;9.67;;;;;24.19;45.40;102398.91;4983987;28;45665;-73
2022/03/14 09:50:37;;;;;;;;;11.00;11.00;;;;;24.26;45.07;102399.25;4978924;27;45431;-73
2022/03/14 09:53:09;;;;;;;;;13.00;12.00;;;;;24.31;45.14;102402.41;4981287;28;45627;-72
2022/03/14 09:55:41;;;;;;;;;12.67;12.33;;;;;24.37;45.10;102405.59;4983031;27;45473;-72
2022/03/14 09:58:15;;;;;;;;;13.00;12.67;;;;;24.42;45.17;102397.91;4979711;28;45583;-73
2022/03/14 10:00:42;;;;;;;;;13.00;13.00;;;;;24.46;45.08;102400.22;4972285;28;46395;-72
2022/03/14 10:03:08;;;;;;;;;13.67;13.67;;;;;24.52;45.21;102401.50;4981907;28;45728;-73
2022/03/14 10:05:34;;;;;;;;;15.33;14.00;;;;;24.55;45.03;102398.53;4975410;28;47430;-71
2022/03/14 10:08:00;;;;;;;;;16.33;14.00;;;;;24.58;44.83;102403.72;4982577;28;45926;-73
2022/03/14 10:10:25;;;;;;;;;15.67;13.00;;;;;24.61;44.89;102416.16;4987968;28;46196;-72
2022/03/14 10:12:57;;;;;;;;;13.00;13.00;;;;;24.63;44.36;102416.00;4982714;28;45476;-72
2022/03/14 10:15:25;;;;;;;;;14.33;13.00;;;;;24.65;44.56;102431.19;4987527;28;45488;-72
2022/03/14 10:17:51;;;;;;;;;14.67;14.67;;;;;24.65;44.80;102425.75;4982971;28;45663;-72
2022/03/14 10:20:18;;;;;;;;;14.33;13.00;;;;;24.66;44.88;102423.88;4979317;28;46096;-72
2022/03/14 10:22:44;;;;;;;;;16.67;15.33;;;;;24.65;44.61;102425.75;4982790;28;45537;-72
2022/03/14 10:25:14;;;;;;;;;10.67;9.33;;;;;24.64;44.51;102421.28;4986695;28;45408;-73
2022/03/14 10:27:46;;;;;;;;;12.67;12.33;;;;;24.61;44.46;102422.41;4985757;28;47261;-73
2022/03/14 10:30:32;;;;;;;;;9.33;9.33;;;;;24.58;44.53;102414.56;4984846;28;46100;-72
2022/03/14 10:33:07;;;;;;;;;10.67;8.33;;;;;24.58;44.50;102419.13;4974959;28;45470;-72
2022/03/14 10:35:37;;;;;;;;;10.67;10.00;;;;;24.58;44.51;102408.25;4982200;28;45583;-72
2022/03/14 10:38:06;;;;;;;;;7.67;7.67;;;;;24.57;44.74;102418.25;4979438;28;45437;-73
2022/03/14 10:40:33;;;;;;;;;9.33;9.33;;;;;24.58;44.53;102411.84;4973191;28;47179;-72
2022/03/14 10:42:58;;;;;;;;;8.00;8.00;;;;;24.58;44.65;102411.84;4972823;28;46015;-72
2022/03/14 10:45:24;;;;;;;;;9.67;8.00;;;;;24.60;44.41;102411.69;4984224;28;45568;-72
2022/03/14 10:47:57;;;;;;;;;8.67;8.67;;;;;24.65;44.79;102414.88;4976268;28;45541;-72
2022/03/14 10:50:38;;;;;;;;;11.00;9.00;;;;;24.71;44.45;102416.19;4978530;28;46227;-73
2022/03/14 10:53:17;;;;;;;;;8.00;8.00;;;;;24.77;44.67;102412.06;4979363;28;45290;-74
2022/03/14 10:55:47;;;;;;;;;6.33;5.67;;;;;24.81;44.45;102414.34;4976957;28;45550;-73
2022/03/14 10:58:17;;;;;;;;;6.00;6.00;;;;;24.85;44.46;102413.13;4979836;28;47204;-73
2022/03/14 11:00:53;;;;;;;;;5.33;5.33;;;;;24.90;44.21;102410.00;4984802;28;46223;-73
2022/03/14 11:03:39;;;;;;;;;9.00;8.00;;;;;24.94;44.09;102407.88;4978499;28;45360;-74
2022/03/14 11:06:06;;;;;;;;;10.67;9.00;;;;;24.96;44.43;102405.88;4985952;27;45527;-74
2022/03/14 11:08:36;;;;;;;;;8.00;7.00;;;;;24.98;44.29;102398.47;4977514;28;45521;-73
2022/03/14 11:11:03;;;;;;;;;4.00;4.00;;;;;25.00;44.10;102401.88;4971505;28;47105;-72
2022/03/14 11:13:29;;;;;;;;;6.00;5.00;;;;;25.02;44.35;102413.47;4980766;27;50816;-72
2022/03/14 11:15:56;;;;;;;;;8.67;6.00;;;;;25.03;43.97;102411.59;4985344;28;45360;-73
2022/03/14 11:18:22;;;;;;;;;8.67;7.00;;;;;25.02;43.90;102405.34;4976091;28;45568;-72
2022/03/14 11:20:48;;;;;;;;;4.00;4.00;;;;;25.05;43.93;102410.47;4971342;28;45621;-73
2022/03/14 11:23:14;;;;;;;;;6.00;5.00;;;;;25.05;43.86;102405.03;4977934;28;45533;-74
2022/03/14 11:25:43;;;;;;;;;4.67;4.67;;;;;25.06;43.97;102408.63;4982309;27;45536;-73
2022/03/14 11:28:15;;;;;;;;;7.33;6.00;;;;;25.07;43.94;102419.34;4974008;28;45486;-73
2022/03/14 11:30:48;;;;;;;;;4.67;3.00;;;;;25.06;43.08;102419.50;4984072;28;45449;-71
2022/03/14 11:33:14;;;;;;;;;3.00;3.00;;;;;24.99;42.33;102421.91;4986465;28;45561;-71
2022/03/14 11:35:42;;;;;;;;;3.33;3.33;;;;;24.91;42.16;102414.44;4978680;27;45550;-71
2022/03/14 11:38:11;;;;;;;;;2.33;2.33;;;;;24.83;41.20;102409.69;4981967;27;45576;-70
2022/03/14 11:40:37;;;;;;;;;3.00;3.00;;;;;24.71;41.01;102403.47;4976962;28;47495;-69
2022/03/14 11:43:03;;;;;;;;;5.00;3.67;;;;;24.61;41.06;102394.44;4981857;28;45482;-69
2022/03/14 11:45:30;;;;;;;;;5.67;2.67;;;;;24.50;40.97;102378.22;4982392;28;45399;-70
2022/03/14 11:47:57;;;;;;;;;3.67;2.00;;;;;24.40;40.49;102389.88;4988159;28;45542;-69
2022/03/14 11:50:22;;;;;;;;;4.67;3.00;;;;;24.31;40.14;102391.56;4975529;28;45584;-69
2022/03/14 11:52:55;;;;;;;;;4.33;4.33;;;;;24.23;40.00;102391.34;4977892;28;46476;-69
2022/03/14 11:55:23;;;;;;;;;2.67;2.00;;;;;24.15;40.18;102383.06;4983832;28;45575;-69
2022/03/14 11:57:49;;;;;;;;;2.67;2.67;;;;;24.08;40.26;102385.41;4973811;28;45562;-69
2022/03/14 12:00:33;;;;;;;;;2.00;2.00;;;;;24.02;39.68;102375.06;4984177;27;45377;-69
2022/03/14 12:03:01;;;;;;;;;2.67;2.00;;;;;23.95;39.55;102367.47;4982707;28;45388;-69
2022/03/14 12:05:38;;;;;;;;;4.33;3.00;;;;;23.90;39.99;102358.00;4978096;28;45678;-69
2022/03/14 12:08:14;;;;;;;;;6.00;4.00;;;;;23.85;39.40;102357.53;4979373;28;45470;-69
2022/03/14 12:10:39;;;;;;;;;7.00;4.33;;;;;23.79;39.65;102357.06;4975984;28;45520;-69
2022/03/14 12:13:05;;;;;;;;;2.33;2.00;;;;;23.76;39.50;102359.19;4976635;28;45479;-69
2022/03/14 12:15:39;;;;;;;;;3.67;2.00;;;;;23.73;39.42;102354.00;4980599;28;45341;-69
2022/03/14 12:18:25;;;;;;;;;7.33;2.67;;;;;23.70;39.23;102344.28;4985315;27;45463;-69
2022/03/14 12:21:03;;;;;;;;;3.33;2.33;;;;;23.65;39.09;102342.00;4987760;27;45372;-69
2022/03/14 12:23:33;;;;;;;;;2.00;2.00;;;;;23.63;38.62;102348.53;4974499;28;45656;-69
2022/03/14 12:26:02;;;;;;;;;4.33;3.67;;;;;23.59;38.89;102338.94;4976817;27;45374;-69
2022/03/14 12:28:34;;;;;;;;;3.33;3.00;;;;;23.55;39.19;102339.19;4974495;28;45525;-70
2022/03/14 12:31:11;;;;;;;;;4.00;4.00;;;;;23.52;38.69;102330.47;4983881;28;47006;-69
2022/03/14 12:33:42;;;;;;;;;3.00;3.00;;;;;23.50;39.17;102333.31;4989121;27;45466;-69
2022/03/14 12:36:31;;;;;;;;;3.00;2.33;;;;;23.46;38.23;102321.00;4977936;28;45441;-69
2022/03/14 12:39:05;;;;;;;;;4.67;3.00;;;;;23.43;39.17;102324.81;4977642;28;45442;-69
2022/03/14 12:41:31;;;;;;;;;4.00;3.00;;;;;23.42;38.70;102323.13;4976792;28;47115;-69
2022/03/14 12:43:57;;;;;;;;;3.00;3.00;;;;;23.40;38.66;102316.97;4977040;28;45403;-69
2022/03/14 12:46:23;;;;;;;;;5.67;5.00;;;;;23.37;38.68;102317.22;4979457;28;45665;-69
2022/03/14 12:48:54;;;;;;;;;4.33;3.67;;;;;23.38;38.35;102323.53;4986177;28;45433;-69
2022/03/14 12:51:27;;;;;;;;;2.00;2.00;;;;;23.35;37.93;102311.09;4988464;28;45344;-69
2022/03/14 12:54:01;;;;;;;;;4.33;3.67;;;;;23.33;37.35;102306.78;4987122;28;45758;-69
2022/03/14 12:56:29;;;;;;;;;5.00;3.67;;;;;23.32;37.86;102307.72;4979039;28;45458;-69
2022/03/14 12:59:09;;;;;;;;;3.33;1.33;;;;;23.29;38.36;102304.31;4983257;27;45314;-69
2022/03/14 13:01:37;;;;;;;;;3.00;3.00;;;;;23.29;38.40;102303.44;4984158;28;46522;-69
2022/03/14 13:04:12;;;;;;;;;2.33;2.00;;;;;23.28;38.46;102305.28;4974758;28;45393;-69
2022/03/14 13:06:41;;;;;;;;;3.67;2.00;;;;;23.27;38.42;102298.16;4985463;28;45532;-69
2022/03/14 13:09:07;;;;;;;;;4.00;4.00;;;;;23.27;38.38;102294.59;4992601;28;45561;-69
2022/03/14 13:11:34;;;;;;;;;4.67;4.00;;;;;23.26;37.84;102295.59;4984704;27;45871;-69
2022/03/14 13:14:02;;;;;;;;;7.00;3.67;;;;;23.27;37.52;102292.75;4986738;28;45514;-69
2022/03/14 13:16:28;;;;;;;;;3.00;2.00;;;;;23.27;37.61;102291.88;4987456;28;45291;-69
2022/03/14 13:18:54;;;;;;;;;4.00;4.00;;;;;23.26;38.11;102299.13;4974201;28;45514;-68
2022/03/14 13:21:23;;;;;;;;;2.67;2.67;;;;;23.25;38.53;102296.53;4975770;28;46331;-69
2022/03/14 13:24:02;;;;;;;;;3.00;2.33;;;;;23.24;37.54;102287.56;4983516;28;45422;-69
2022/03/14 13:26:31;;;;;;;;;2.00;2.00;;;;;23.21;37.26;102287.81;4977300;28;45414;-69
2022/03/14 13:28:58;;;;;;;;;2.00;2.00;;;;;23.20;37.99;102291.53;4976813;28;45584;-69
2022/03/14 13:31:34;;;;;;;;;2.33;2.00;;;;;23.16;37.96;102290.06;4977043;28;46206;-69
2022/03/14 13:34:01;;;;;;;;;3.67;3.67;;;;;23.14;37.93;102295.59;4974669;28;45394;-69
2022/03/14 13:36:26;;;;;;;;;3.33;2.33;;;;;23.12;38.32;102296.72;4988108;27;48318;-70
2022/03/14 13:38:52;;;;;;;;;4.33;4.33;;;;;23.11;38.41;102295.00;4989754;28;45493;-69
2022/03/14 13:41:27;;;;;;;;;2.33;2.33;;;;;23.11;38.61;102304.00;4987374;28;45466;-69
2022/03/14 13:44:02;;;;;;;;;3.00;3.00;;;;;23.11;38.39;102297.72;4983094;28;45753;-69
2022/03/14 13:46:30;;;;;;;;;9.00;4.33;;;;;23.10;38.44;102301.41;4982408;28;45487;-69
2022/03/14 13:49:14;;;;;;;;;2.00;2.00;;;;;23.12;39.09;102299.44;4997833;27;46367;-69
2022/03/14 13:51:52;;;;;;;;;3.33;3.33;;;;;23.13;38.89;102301.16;4988482;28;51712;-69
2022/03/14 13:54:25;;;;;;;;;4.67;3.00;;;;;23.16;39.21;102306.31;4985144;28;46014;-73
2022/03/14 13:57:01;;;;;;;;;9.67;7.00;;;;;23.17;40.02;102306.19;4977010;27;45395;-73
2022/03/14 13:59:28;;;;;;;;;6.00;4.00;;;;;23.21;40.02;102306.78;4980016;28;45867;-73
2022/03/14 14:02:07;;;;;;;;;5.67;4.00;;;;;23.28;40.38;102297.16;4982640;28;45736;-73
2022/03/14 14:04:42;;;;;;;;;6.00;3.67;;;;;23.35;40.31;102296.66;5000416;27;45559;-72
2022/03/14 14:07:55;;;;;;;;;6.33;5.00;;;;;23.41;41.11;102294.31;4975146;28;45466;-73
2022/03/14 14:10:21;;;;;;;;;9.00;7.67;;;;;23.47;41.38;102284.81;4979123;28;45490;-72
2022/03/14 14:13:03;;;;;;;;;7.67;5.33;;;;;23.51;40.65;102278.09;4999043;27;46089;-69
2022/03/14 14:15:44;;;;;;;;;6.00;4.00;;;;;23.52;40.63;102274.44;4980116;27;45518;-71
2022/03/14 14:18:14;;;;;;;;;6.00;6.00;;;;;23.50;40.03;102275.56;4976232;28;45402;-70
2022/03/14 14:20:39;;;;;;;;;4.33;4.33;;;;;23.46;40.02;102272.22;4973586;28;45796;-71
2022/03/14 14:23:07;;;;;;;;;5.00;4.00;;;;;23.43;40.12;102273.34;4974413;28;46291;-69
2022/03/14 14:25:35;;;;;;;;;8.67;5.67;;;;;23.40;40.21;102265.50;4979331;27;45859;-69
2022/03/14 14:28:07;;;;;;;;;6.67;5.67;;;;;23.38;40.07;102272.03;4981289;28;45431;-69
2022/03/14 14:30:44;;;;;;;;;7.67;4.67;;;;;23.35;40.02;102264.16;4993141;28;45589;-69
2022/03/14 14:33:12;;;;;;;;;6.33;4.00;;;;;23.32;40.10;102264.38;4976460;28;46088;-69
2022/03/14 14:35:39;;;;;;;;;8.33;5.00;;;;;23.30;40.51;102257.25;4983746;28;45485;-70
2022/03/14 14:38:05;;;;;;;;;5.67;5.33;;;;;23.33;40.19;102258.88;4985959;28;45456;-70
2022/03/14 14:40:31;;;;;;;;;7.67;4.00;;;;;23.37;40.55;102259.47;4995439;28;45525;-70
2022/03/14 14:42:57;;;;;;;;;7.67;5.33;;;;;23.43;40.40;102256.25;4986535;28;45435;-71
2022/03/14 14:45:23;;;;;;;;;5.00;5.00;;;;;23.47;40.61;102255.00;4984917;27;45423;-71
2022/03/14 14:47:49;;;;;;;;;6.00;5.00;;;;;23.51;40.89;102256.44;4995770;27;45473;-71
2022/03/14 14:50:15;;;;;;;;;5.67;3.67;;;;;23.57;41.07;102265.06;4983171;28;45191;-71
2022/03/14 14:52:40;;;;;;;;;7.33;5.00;;;;;23.61;41.21;102270.06;4976031;28;46902;-71
2022/03/14 14:55:06;;;;;;;;;5.00;2.67;;;;;23.64;40.51;102269.81;4974209;28;45576;-71
2022/03/14 14:57:33;;;;;;;;;2.33;2.00;;;;;23.66;41.20;102277.78;4973550;28;45676;-71
2022/03/14 14:59:59;;;;;;;;;10.33;6.00;;;;;23.69;41.20;102281.09;4986667;28;45382;-71
2022/03/14 15:02:27;;;;;;;;;5.33;5.33;;;;;23.72;41.36;102282.69;4978127;28;46035;-71
2022/03/14 15:04:52;;;;;;;;;3.33;3.33;;;;;23.74;41.50;102280.69;4977845;27;45338;-70
2022/03/14 15:07:18;;;;;;;;;3.67;2.00;;;;;23.77;41.46;102285.00;4979111;28;45709;-71
2022/03/14 15:09:43;;;;;;;;;5.33;4.00;;;;;23.79;40.95;102280.31;4980881;28;45498;-73
2022/03/14 15:12:09;;;;;;;;;5.33;4.00;;;;;23.77;39.34;102277.72;4978360;28;46229;-70
2022/03/14 15:14:34;;;;;;;;;7.67;6.67;;;;;23.73;39.34;102272.69;4979262;27;45453;-70
2022/03/14 15:17:00;;;;;;;;;5.33;5.33;;;;;23.67;39.57;102274.94;4983253;28;45518;-69
2022/03/14 15:19:25;;;;;;;;;5.67;4.67;;;;;23.62;38.98;102273.63;4977651;28;45486;-69
2022/03/14 15:21:51;;;;;;;;;6.33;4.67;;;;;23.58;38.99;102267.59;4989228;28;56970;-68
2022/03/14 15:24:16;;;;;;;;;5.33;3.67;;;;;23.54;38.90;102264.31;4978466;28;45479;-68
2022/03/14 15:26:42;;;;;;;;;4.67;4.00;;;;;23.51;38.94;102261.84;4992565;28;48030;-69
2022/03/14 15:29:07;;;;;;;;;5.67;4.00;;;;;23.47;39.08;102259.53;4989504;28;45431;-68
2022/03/14 15:31:34;;;;;;;;;7.33;6.00;;;;;23.42;39.24;102252.66;4987837;28;46359;-67
2022/03/14 15:34:00;;;;;;;;;5.00;4.00;;;;;23.39;39.08;102246.66;4975966;28;45450;-72
2022/03/14 15:36:25;;;;;;;;;4.00;4.00;;;;;23.38;39.29;102243.06;4991214;28;45465;-72
2022/03/14 15:38:51;;;;;;;;;7.00;4.00;;;;;23.38;39.44;102242.25;4995547;27;45516;-71
2022/03/14 15:41:16;;;;;;;;;2.67;2.67;;;;;23.38;39.52;102243.06;4991850;27;45957;-73
2022/03/14 15:43:42;;;;;;;;;8.00;2.00;;;;;23.40;39.77;102246.53;4994106;28;45458;-73
2022/03/14 16:55:10;;;;;;;;;8.50;6.75;;;;;19.25;46.40;102238.91;5070777;27;45949;-69
2022/03/14 16:58:06;;;;;;;;;4.50;4.50;;;;;19.40;46.78;102237.00;5052656;27;45943;-71
2022/03/14 17:00:31;;;;;;;;;10.50;6.75;;;;;19.58;46.87;102244.81;5048479;28;45496;-70
2022/03/14 17:03:03;;;;;;;;;7.00;5.00;;;;;19.75;46.36;102233.72;5038693;28;45500;-69
2022/03/14 17:05:29;;;;;;;;;13.25;11.25;;;;;19.95;46.30;102236.00;5035357;28;45665;-70
2022/03/14 17:07:54;;;;;;;;;10.25;6.75;;;;;20.13;45.93;102239.25;5045479;28;47127;-69
2022/03/14 17:13:08;;;;;;;;;14.00;11.00;;;;;20.48;46.48;102232.28;5045842;28;45423;-72
2022/03/14 17:15:34;;;;;;;;;13.75;10.75;;;;;20.62;45.79;102236.66;5032276;28;45588;-72
2022/03/14 17:18:00;;;;;;;;;10.50;7.50;;;;;20.75;45.07;102240.19;5047544;28;46366;-70
2022/03/14 17:20:31;;;;;;;;;11.00;8.67;;;;;20.86;44.23;102244.81;5037000;28;45498;-70
2022/03/14 17:23:01;;;;;;;;;17.00;10.25;;;;;20.97;44.67;102245.84;5042831;28;45414;-72
2022/03/14 17:25:27;;;;;;;;;13.00;10.33;;;;;21.09;44.01;102244.91;5044274;28;45626;-73
2022/03/14 17:27:52;;;;;;;;;11.33;9.00;;;;;21.20;43.86;102238.69;5044763;28;47311;-72
2022/03/14 17:30:18;;;;;;;;;15.00;10.33;;;;;21.31;44.54;102233.34;5049345;28;45403;-72
2022/03/14 17:32:43;;;;;;;;;12.67;10.00;;;;;21.43;44.02;102236.97;5036188;28;45512;-71
2022/03/14 17:35:09;;;;;;;;;7.00;7.00;;;;;21.53;44.38;102245.19;5036723;28;45383;-71
2022/03/14 17:37:36;;;;;;;;;12.67;9.00;;;;;21.63;44.09;102242.66;5037931;28;47050;-72
2022/03/14 17:40:03;;;;;;;;;14.67;7.33;;;;;21.74;44.08;102252.63;5045518;28;49627;-73
2022/03/14 17:42:29;;;;;;;;;11.33;8.33;;;;;21.82;43.65;102246.63;5042485;28;45467;-72
2022/03/14 17:44:54;;;;;;;;;9.00;6.00;;;;;21.90;43.56;102249.59;5045288;28;45514;-72
2022/03/14 17:47:20;;;;;;;;;10.33;9.33;;;;;21.97;44.19;102255.38;5044977;28;45408;-72
